Time;durP1;ratioP1;P1;durP2;ratioP2;P2;SDS_P1;SDS_P2;PMS_P1;PMS_P2;Temp;Humidity;BMP_temperature;BMP_pressure;BME280_temperature;BME280_humidity;BME280_pressure;Samples;Min_cycle;Max_cycle;Signal;HPM_P1;HPM_P2
2024/03/20 00:00:55;;;;;;;15.63;7.75;;;14.40;99.90;;;14.84;82.74;101803.56;5095870;28;20036;-70
2024/03/20 00:03:26;;;;;;;20.38;7.53;;;14.40;99.90;;;14.85;82.36;101794.66;5077975;28;20059;-70
2024/03/20 00:05:54;;;;;;;19.48;7.90;;;14.40;99.90;;;14.85;82.60;101797.34;5077761;28;20044;-70
2024/03/20 00:08:21;;;;;;;14.77;7.43;;;14.40;99.90;;;14.84;82.40;101800.91;5095128;28;20039;-70
2024/03/20 00:10:49;;;;;;;24.70;7.88;;;14.40;99.90;;;14.83;82.39;101800.91;5093989;28;20089;-70
2024/03/20 00:13:17;;;;;;;18.98;7.75;;;14.40;99.90;;;14.77;82.52;101787.66;5094151;28;20047;-70
2024/03/20 00:15:45;;;;;;;18.17;8.38;;;14.40;99.90;;;14.77;82.37;101787.66;5093908;28;20036;-70
2024/03/20 00:18:14;;;;;;;18.88;8.18;;;14.40;99.90;;;14.82;82.31;101797.38;5093574;28;20032;-70
2024/03/20 00:20:41;;;;;;;15.35;7.97;;;14.40;99.90;;;14.78;82.19;101795.63;5093532;28;20039;-70
2024/03/20 00:23:09;;;;;;;17.25;8.32;;;14.40;99.90;;;14.72;82.42;101792.09;5093815;28;20121;-70
2024/03/20 00:25:36;;;;;;;23.13;8.43;;;14.30;99.90;;;14.59;82.99;101791.31;5093484;28;20047;-70
2024/03/20 00:28:04;;;;;;;13.65;7.13;;;14.20;99.90;;;14.58;83.52;101793.94;5076665;28;20054;-70
2024/03/20 00:30:32;;;;;;;14.88;8.68;;;14.10;99.90;;;14.61;83.74;101784.19;5093486;28;20111;-70
2024/03/20 00:33:00;;;;;;;19.80;7.60;;;14.10;99.90;;;14.47;84.41;101778.06;5093439;28;20043;-70
2024/03/20 00:35:27;;;;;;;11.88;7.20;;;14.00;99.90;;;14.46;84.97;101776.28;5093431;28;20039;-70
2024/03/20 00:37:55;;;;;;;16.40;7.47;;;14.00;99.90;;;14.45;85.53;101782.50;5093270;28;20096;-70
2024/03/20 00:40:22;;;;;;;14.30;8.07;;;14.00;99.90;;;14.41;85.62;101784.31;5093050;28;20522;-70
2024/03/20 00:42:49;;;;;;;15.48;7.13;;;13.90;99.90;;;14.42;85.01;101782.50;5093509;28;20105;-70
2024/03/20 00:45:17;;;;;;;20.40;7.50;;;13.90;99.90;;;14.34;84.97;101776.38;5093274;28;20085;-70
2024/03/20 00:47:46;;;;;;;17.13;7.47;;;13.90;99.90;;;14.28;85.01;101771.06;5093388;28;20066;-70
2024/03/20 00:50:13;;;;;;;16.58;8.25;;;13.80;99.90;;;14.36;84.50;101779.91;5093127;28;20055;-70
2024/03/20 00:52:41;;;;;;;21.45;7.38;;;13.90;99.90;;;14.41;84.16;101781.66;5075793;28;20081;-70
2024/03/20 00:55:10;;;;;;;14.90;7.68;;;14.00;99.90;;;14.44;83.74;101775.41;5093213;28;20042;-70
2024/03/20 00:57:37;;;;;;;16.20;7.38;;;14.00;99.90;;;14.46;83.79;101801.13;5093042;28;20051;-70
2024/03/20 01:00:06;;;;;;;14.68;7.60;;;14.00;99.90;;;14.45;83.83;101780.75;5093168;28;20093;-70
2024/03/20 01:02:34;;;;;;;15.88;7.80;;;14.00;99.90;;;14.41;83.79;101783.41;5092896;28;20039;-70
2024/03/20 01:05:02;;;;;;;17.33;8.23;;;14.00;99.90;;;14.45;83.97;101777.19;5076244;28;20101;-70
2024/03/20 01:07:30;;;;;;;18.63;8.02;;;14.00;99.90;;;14.43;84.28;101770.97;5093365;28;20092;-70
2024/03/20 01:09:57;;;;;;;19.65;8.25;;;14.00;99.90;;;14.29;85.82;101763.06;5092976;28;20113;-70
2024/03/20 01:12:24;;;;;;;15.23;7.85;;;13.90;99.90;;;14.22;87.55;101769.28;5092898;28;20040;-70
2024/03/20 01:14:52;;;;;;;15.50;7.53;;;13.70;99.90;;;14.17;87.23;101792.38;5093165;28;20042;-70
2024/03/20 01:17:20;;;;;;;16.17;7.80;;;13.60;99.90;;;14.05;87.24;101768.47;5093090;28;20040;-70
2024/03/20 01:19:48;;;;;;;22.20;7.85;;;13.60;99.90;;;13.87;87.13;101767.66;5092720;28;20044;-70
2024/03/20 01:22:16;;;;;;;13.88;7.65;;;13.40;99.90;;;13.72;87.59;101759.75;5092759;28;20044;-70
2024/03/20 01:24:44;;;;;;;17.60;7.70;;;13.20;99.90;;;13.73;87.78;101756.16;5075479;28;20695;-70
2024/03/20 01:27:11;;;;;;;16.63;7.90;;;13.20;99.90;;;13.74;88.00;101756.19;5072501;28;20046;-70
2024/03/20 01:29:39;;;;;;;11.20;6.80;;;13.20;99.90;;;13.72;88.42;101762.41;5072863;28;20036;-70
2024/03/20 01:32:07;;;;;;;15.15;8.63;;;13.20;99.90;;;13.68;88.41;101755.31;5072568;28;20043;-70
2024/03/20 01:34:34;;;;;;;15.85;8.20;;;13.20;99.90;;;13.48;88.10;101716.38;5072821;28;20051;-70
2024/03/20 01:37:02;;;;;;;14.85;8.18;;;13.20;99.90;;;13.54;88.32;101750.94;5073024;28;20044;-70
2024/03/20 01:39:31;;;;;;;18.08;8.20;;;13.10;99.90;;;13.47;88.59;101742.97;5073024;28;20439;-70
2024/03/20 01:41:58;;;;;;;18.42;8.40;;;13.10;99.90;;;13.20;89.53;101741.22;5072363;28;20432;-70
2024/03/20 01:44:26;;;;;;;15.02;8.95;;;12.80;99.90;;;12.87;91.24;101735.91;5072322;28;20090;-70
2024/03/20 01:46:54;;;;;;;16.75;8.73;;;12.50;99.90;;;12.82;92.00;101720.84;5072409;28;20052;-70
2024/03/20 01:49:21;;;;;;;17.98;8.13;;;12.40;99.90;;;12.82;92.14;101724.41;5072551;28;20500;-70
2024/03/20 01:51:48;;;;;;;17.92;8.05;;;12.40;99.90;;;12.71;92.85;101718.22;5073152;28;20435;-70
2024/03/20 01:54:16;;;;;;;16.10;7.95;;;12.30;99.90;;;12.80;93.11;101727.94;5076303;28;20040;-70
2024/03/20 01:56:45;;;;;;;15.40;7.75;;;12.40;99.90;;;12.93;92.83;101727.94;5076041;28;20040;-70
2024/03/20 01:59:12;;;;;;;16.88;7.72;;;12.50;99.90;;;12.91;93.16;101721.72;5076615;28;20044;-70
2024/03/20 02:01:40;;;;;;;20.98;8.80;;;12.50;99.90;;;13.04;92.88;101714.69;5076296;28;20044;-70
2024/03/20 02:04:08;;;;;;;17.13;7.43;;;12.60;99.90;;;13.03;92.32;101710.22;5076173;28;20102;-70
2024/03/20 02:06:35;;;;;;;17.70;8.13;;;12.70;99.90;;;13.11;91.95;101719.09;5059349;28;20052;-70
2024/03/20 02:09:04;;;;;;;15.73;7.57;;;12.70;99.90;;;13.12;91.59;101711.16;5076070;28;20048;-69
2024/03/20 02:11:31;;;;;;;13.48;6.93;;;12.80;99.90;;;13.18;91.36;101711.13;5075690;28;20416;-70
2024/03/20 02:14:00;;;;;;;14.68;7.68;;;12.80;99.90;;;12.99;91.36;101682.78;5059144;28;20493;-70
2024/03/20 02:16:28;;;;;;;15.77;7.40;;;12.80;99.90;;;13.11;91.42;101693.44;5075985;28;20048;-70
2024/03/20 02:18:56;;;;;;;14.40;7.43;;;12.80;99.90;;;13.21;91.32;101710.22;5075707;28;20532;-70
2024/03/20 02:21:25;;;;;;;16.23;7.13;;;12.90;99.90;;;13.26;90.75;101714.66;5075471;28;20101;-70
2024/03/20 02:23:53;;;;;;;16.35;6.70;;;12.90;99.90;;;13.35;90.64;101719.06;5075907;28;20040;-70
2024/03/20 02:26:20;;;;;;;16.77;6.95;;;13.00;99.90;;;13.36;90.43;101711.09;5075447;28;20058;-70
2024/03/20 02:28:48;;;;;;;15.57;6.93;;;13.00;99.90;;;13.43;90.20;101712.84;5075797;28;20700;-70
2024/03/20 02:31:16;;;;;;;19.10;7.32;;;13.00;99.90;;;13.36;89.45;101679.19;5075419;28;20408;-70
2024/03/20 02:33:43;;;;;;;15.80;6.82;;;13.10;99.90;;;13.59;89.13;101706.59;5075519;28;20047;-70
2024/03/20 02:36:11;;;;;;;11.20;7.22;;;13.20;99.90;;;13.69;89.21;101714.53;5075366;28;20040;-70
2024/03/20 02:38:41;;;;;;;17.27;7.60;;;13.30;99.90;;;13.53;88.55;101687.09;5059116;28;20051;-70
2024/03/20 02:41:09;;;;;;;;;;;13.30;99.90;;;13.68;88.99;101719.00;5076025;28;20040;-70
2024/03/20 02:43:36;;;;;;;18.00;7.93;;;13.30;99.90;;;13.66;88.39;101709.22;5075513;28;19920;-70
2024/03/20 02:46:04;;;;;;;12.73;7.43;;;13.30;99.90;;;13.62;88.67;101707.47;5075152;28;20040;-70
2024/03/20 02:48:34;;;;;;;19.08;7.85;;;13.20;99.90;;;13.48;88.75;101699.53;5075674;28;20051;-70
2024/03/20 02:51:02;;;;;;;13.50;7.60;;;13.10;99.90;;;13.37;88.99;101696.94;5075138;28;20165;-70
2024/03/20 02:53:30;;;;;;;12.50;6.97;;;13.00;99.90;;;13.18;90.17;101700.50;5074908;28;20059;-70
2024/03/20 02:55:58;;;;;;;13.70;7.20;;;12.70;99.90;;;13.12;90.89;101705.84;5074970;28;20044;-70
2024/03/20 02:58:26;;;;;;;16.15;7.43;;;12.60;99.90;;;13.03;91.33;101705.81;5058166;28;20052;-70
2024/03/20 03:00:53;;;;;;;18.17;7.45;;;12.50;99.90;;;13.20;91.48;101697.84;5074932;28;20070;-70
2024/03/20 03:03:20;;;;;;;20.27;8.32;;;12.70;99.90;;;13.20;90.88;101696.06;5074294;28;20097;-70
2024/03/20 03:05:48;;;;;;;21.40;8.38;;;12.80;99.90;;;13.23;91.09;101700.50;5075101;28;20047;-70
2024/03/20 03:08:15;;;;;;;18.63;7.60;;;12.80;99.90;;;13.12;91.05;101673.97;5074752;28;20044;-70
2024/03/20 03:10:42;;;;;;;20.77;8.35;;;12.80;99.90;;;13.26;90.97;101703.13;5074667;28;20086;-70
2024/03/20 03:13:12;;;;;;;18.50;8.20;;;12.80;99.90;;;13.16;90.92;101683.66;5075209;28;20058;-70
2024/03/20 03:15:39;;;;;;;21.63;9.55;;;12.80;99.90;;;13.19;91.05;101699.63;5074567;28;20036;-70
2024/03/20 03:18:07;;;;;;;14.82;8.00;;;12.80;99.90;;;13.26;90.88;101697.81;5074779;28;20043;-70
2024/03/20 03:20:34;;;;;;;16.73;8.30;;;12.80;99.90;;;13.18;90.87;101700.50;5058010;28;20447;-70
2024/03/20 03:23:02;;;;;;;17.40;8.43;;;12.80;99.90;;;13.16;91.38;101693.44;5074513;28;20051;-70
2024/03/20 03:25:29;;;;;;;14.75;8.43;;;12.70;99.90;;;12.67;92.66;101684.59;5074375;28;20055;-70
2024/03/20 03:27:57;;;;;;;14.57;8.07;;;12.40;99.90;;;12.40;94.90;101689.88;5074368;28;20040;-70
2024/03/20 03:30:26;;;;;;;12.88;7.72;;;12.10;99.90;;;12.37;95.29;101687.19;5074255;28;20082;-70
2024/03/20 03:32:53;;;;;;;16.75;8.57;;;12.00;99.90;;;12.19;96.75;101680.13;5074281;28;20048;-70
2024/03/20 03:35:22;;;;;;;19.42;9.05;;;11.80;99.90;;;12.17;97.18;101683.63;5074231;28;20040;-70
2024/03/20 03:37:50;;;;;;;16.58;8.80;;;11.80;99.90;;;12.10;97.73;101682.72;5074164;28;20492;-70
2024/03/20 03:40:17;;;;;;;13.88;8.48;;;11.70;99.90;;;11.78;99.34;101682.66;5074330;28;20370;-70
2024/03/20 03:42:45;;;;;;;18.00;9.70;;;11.50;99.90;;;11.78;100.00;101687.06;5074015;28;20044;-70
2024/03/20 03:45:12;;;;;;;20.70;10.32;;;11.40;99.90;;;11.97;100.00;101686.25;5074131;28;20603;-70
2024/03/20 03:47:41;;;;;;;18.95;10.77;;;11.50;99.90;;;11.94;99.58;101673.00;5074602;28;20390;-70
2024/03/20 03:50:09;;;;;;;22.45;10.95;;;11.60;99.90;;;12.05;99.30;101686.25;5074166;28;20044;-70
2024/03/20 03:52:37;;;;;;;20.30;10.55;;;11.70;99.90;;;11.99;99.61;101675.63;5073698;28;20233;-70
2024/03/20 03:55:06;;;;;;;22.45;10.45;;;11.80;99.90;;;12.10;99.70;101690.69;5073831;28;20105;-70
2024/03/20 03:57:33;;;;;;;28.67;11.27;;;11.80;99.90;;;12.18;99.48;101690.69;5073750;28;20085;-70
2024/03/20 04:00:00;;;;;;;16.60;10.15;;;11.90;99.90;;;12.27;98.98;101698.69;5073973;28;20044;-70
2024/03/20 04:02:28;;;;;;;20.15;10.23;;;12.00;99.90;;;12.38;98.52;101700.50;5073708;28;20564;-70
2024/03/20 04:04:57;;;;;;;29.25;11.35;;;12.00;99.90;;;12.38;97.86;101702.25;5073528;28;20584;-70
2024/03/20 04:07:24;;;;;;;17.30;10.70;;;12.10;99.90;;;12.49;97.64;101709.34;5073572;28;20039;-70
2024/03/20 04:09:52;;;;;;;21.73;10.68;;;12.10;99.90;;;12.52;97.47;101706.66;5073815;28;20055;-70
2024/03/20 04:12:20;;;;;;;21.83;11.00;;;12.20;99.90;;;12.54;97.20;101704.91;5073625;28;20455;-70
2024/03/20 04:14:47;;;;;;;19.00;11.10;;;12.30;99.90;;;12.57;97.09;101710.22;5072735;28;20035;-70
2024/03/20 04:17:14;;;;;;;18.30;11.10;;;12.30;99.90;;;12.63;96.48;101712.91;5073464;28;20043;-70
2024/03/20 04:19:42;;;;;;;22.40;10.75;;;12.30;99.90;;;12.67;96.16;101716.44;5073326;28;20055;-70
2024/03/20 04:22:11;;;;;;;24.02;11.15;;;12.40;99.90;;;12.65;95.65;101689.91;5073349;28;20101;-70
2024/03/20 04:24:38;;;;;;;21.92;11.35;;;12.40;99.90;;;12.79;95.14;101703.16;5056905;28;20043;-70
2024/03/20 04:27:06;;;;;;;20.17;10.95;;;12.50;99.90;;;12.90;95.00;101713.78;5073231;28;20443;-70
2024/03/20 04:29:34;;;;;;;24.40;11.80;;;12.50;99.90;;;12.94;94.29;101715.53;5073192;28;20048;-70
2024/03/20 04:32:01;;;;;;;22.25;11.18;;;12.50;99.90;;;12.93;93.97;101713.78;5056717;28;20123;-70
2024/03/20 04:34:28;;;;;;;21.88;11.07;;;12.50;99.90;;;12.82;94.35;101716.44;5056621;28;20443;-70
2024/03/20 04:36:56;;;;;;;19.00;10.75;;;12.40;99.90;;;12.86;94.58;101717.31;5073111;28;20044;-70
2024/03/20 04:39:29;;;;;;;16.15;10.68;;;12.40;99.90;;;12.88;94.41;101712.88;5072980;28;20404;-70
2024/03/20 04:41:56;;;;;;;19.38;11.18;;;12.40;99.90;;;12.86;94.66;101712.00;5073372;28;20043;-70
2024/03/20 04:44:24;;;;;;;18.38;10.65;;;12.50;99.90;;;12.92;94.61;101717.31;5073362;28;20043;-70
2024/03/20 04:46:52;;;;;;;22.00;10.60;;;12.50;99.90;;;12.90;94.36;101716.44;5072932;28;20036;-70
2024/03/20 04:49:19;;;;;;;19.08;10.80;;;12.50;99.90;;;12.97;94.18;101716.41;5073268;28;20363;-70
2024/03/20 04:51:46;;;;;;;21.42;11.20;;;12.50;99.90;;;13.01;94.04;101722.59;5072927;28;20040;-70
2024/03/20 04:54:16;;;;;;;17.45;10.70;;;12.50;99.90;;;13.03;94.05;101720.84;5073017;28;20059;-70
2024/03/20 04:56:45;;;;;;;22.55;11.50;;;12.60;99.90;;;12.98;94.36;101725.28;5073415;28;20040;-70
2024/03/20 04:59:12;;;;;;;19.50;10.88;;;12.50;99.90;;;12.88;94.81;101728.81;5072790;28;20044;-70
2024/03/20 05:01:39;;;;;;;19.33;11.32;;;12.40;99.90;;;12.89;94.66;101727.94;5072782;28;20405;-70
2024/03/20 05:04:07;;;;;;;17.85;11.02;;;12.50;99.90;;;12.88;94.62;101727.06;5073022;28;20114;-70
2024/03/20 05:06:34;;;;;;;20.80;11.45;;;12.40;99.90;;;12.88;94.94;101721.75;5073038;28;20093;-70
2024/03/20 05:09:02;;;;;;;22.88;11.27;;;12.40;99.90;;;12.60;95.89;101722.63;5072841;28;20051;-70
2024/03/20 05:11:29;;;;;;;21.58;11.65;;;12.20;99.90;;;12.75;95.91;101724.41;5073243;28;20074;-70
2024/03/20 05:13:58;;;;;;;21.80;11.60;;;12.30;99.90;;;12.81;95.76;101722.66;5072748;28;20048;-70
2024/03/20 05:16:25;;;;;;;25.17;11.90;;;12.40;99.90;;;12.87;95.73;101724.41;5072680;28;20036;-70
2024/03/20 05:18:52;;;;;;;19.73;11.82;;;12.40;99.90;;;12.90;95.08;101729.72;5072633;28;20044;-70
2024/03/20 05:21:19;;;;;;;24.50;11.45;;;12.40;99.90;;;12.96;95.09;101735.03;5072670;28;20097;-70
2024/03/20 05:23:46;;;;;;;18.13;11.57;;;12.50;99.90;;;12.95;94.97;101731.47;5072883;28;20374;-70
2024/03/20 05:26:12;;;;;;;21.50;12.20;;;12.50;99.90;;;12.97;94.52;101731.50;5073968;28;20044;-70
2024/03/20 05:28:41;;;;;;;23.15;11.27;;;12.50;99.90;;;12.85;94.74;101727.06;5077126;28;20048;-70
2024/03/20 05:31:08;;;;;;;20.95;11.90;;;12.40;99.90;;;12.93;94.78;101741.19;5076819;28;20048;-70
2024/03/20 05:33:36;;;;;;;18.80;11.85;;;12.50;99.90;;;12.91;94.66;101724.38;5076495;28;20054;-70
2024/03/20 05:36:04;;;;;;;20.58;11.45;;;12.50;99.90;;;13.02;94.40;101732.38;5076833;28;20047;-70
2024/03/20 05:38:31;;;;;;;19.83;11.82;;;12.50;99.90;;;13.03;94.12;101721.75;5076429;28;20199;-70
2024/03/20 05:40:57;;;;;;;21.63;11.75;;;12.60;99.90;;;13.12;93.94;101735.06;5076411;28;20568;-70
2024/03/20 05:43:25;;;;;;;23.05;11.15;;;12.60;99.90;;;13.21;93.50;101723.53;5076367;28;20047;-70
2024/03/20 05:45:51;;;;;;;17.45;11.25;;;12.70;99.90;;;13.26;93.22;101738.56;5076471;28;20032;-70
2024/03/20 05:48:20;;;;;;;21.85;12.75;;;12.80;99.90;;;13.27;92.85;101727.06;5076269;28;20044;-70
2024/03/20 05:50:46;;;;;;;25.05;12.02;;;12.80;99.90;;;13.31;92.66;101736.81;5076297;28;20058;-70
2024/03/20 05:53:14;;;;;;;19.95;11.07;;;12.80;99.90;;;13.26;92.76;101735.91;5076072;28;20424;-70
2024/03/20 05:55:40;;;;;;;22.67;12.20;;;12.80;99.90;;;13.28;92.95;101736.78;5076164;28;20109;-70
2024/03/20 05:58:07;;;;;;;20.20;11.38;;;12.80;99.90;;;13.32;93.19;101729.69;5075974;28;20040;-70
2024/03/20 06:00:34;;;;;;;17.08;10.43;;;12.90;99.90;;;13.30;93.18;101735.00;5076335;28;20036;-70
2024/03/20 06:03:01;;;;;;;20.33;10.98;;;12.90;99.90;;;13.30;93.05;101740.31;5075995;28;20044;-70
2024/03/20 06:05:31;;;;;;;15.57;10.73;;;12.90;99.90;;;13.29;93.09;101743.91;5076117;28;20070;-70
2024/03/20 06:07:58;;;;;;;17.55;10.82;;;12.80;99.90;;;13.22;92.89;101744.75;5076103;28;20048;-70
2024/03/20 06:10:25;;;;;;;20.33;11.05;;;12.70;99.90;;;13.18;92.96;101742.13;5059337;28;20052;-70
2024/03/20 06:12:52;;;;;;;17.88;10.70;;;12.70;99.90;;;13.19;92.90;101744.78;5076035;28;20052;-70
2024/03/20 06:15:18;;;;;;;20.73;11.40;;;12.70;99.90;;;13.26;92.49;101746.53;5076004;28;20040;-70
2024/03/20 06:17:46;;;;;;;22.35;11.43;;;12.70;99.90;;;13.27;92.54;101748.31;5075688;28;20552;-70
2024/03/20 06:20:13;;;;;;;22.35;11.95;;;12.80;99.90;;;13.28;92.45;101755.38;5075722;28;20493;-70
2024/03/20 06:22:41;;;;;;;20.38;11.70;;;12.80;99.90;;;13.39;92.24;101756.25;5075817;28;20048;-70
2024/03/20 06:25:08;;;;;;;20.48;11.27;;;12.90;99.90;;;13.35;92.05;101757.16;5059221;28;20504;-70
2024/03/20 06:27:36;;;;;;;23.85;11.73;;;12.90;99.90;;;13.41;92.12;101757.13;5058919;28;20557;-70
2024/03/20 06:30:08;;;;;;;19.02;11.57;;;12.90;99.90;;;13.45;92.25;101763.34;5075509;28;20093;-70
2024/03/20 06:32:36;;;;;;;20.58;11.68;;;13.00;99.90;;;13.48;92.67;101760.69;5075417;28;20063;-70
2024/03/20 06:35:03;;;;;;;22.60;12.10;;;13.00;99.90;;;13.44;92.79;101761.56;5075717;28;20548;-70
2024/03/20 06:37:30;;;;;;;17.27;11.40;;;13.00;99.90;;;13.51;92.38;101768.66;5074462;28;20032;-70
2024/03/20 06:39:58;;;;;;;21.02;11.55;;;13.00;99.90;;;13.62;92.60;101771.28;5075282;28;20547;-70
2024/03/20 06:42:26;;;;;;;17.02;11.00;;;13.10;99.90;;;13.73;92.71;101773.03;5075168;28;20036;-70
2024/03/20 06:44:53;;;;;;;19.63;11.90;;;13.20;99.90;;;13.82;92.92;101769.47;5075113;28;20044;-70
2024/03/20 06:47:23;;;;;;;14.75;9.85;;;13.30;99.90;;;13.74;93.56;101772.16;5075073;28;20421;-70
2024/03/20 06:49:49;;;;;;;15.65;10.95;;;13.30;99.90;;;13.82;94.03;101772.97;5075106;28;20508;-70
2024/03/20 06:52:20;;;;;;;21.67;12.05;;;13.30;99.90;;;13.92;93.25;101771.16;5074901;28;20093;-70
2024/03/20 06:54:46;;;;;;;16.80;10.88;;;13.40;99.90;;;14.04;92.35;101774.69;5074772;28;20044;-70
2024/03/20 06:57:15;;;;;;;23.90;11.15;;;13.50;99.90;;;14.19;91.88;101781.69;5075205;28;20058;-70
2024/03/20 06:59:42;;;;;;;20.00;10.98;;;13.70;99.90;;;14.22;91.27;101776.38;5074485;28;20515;-70
2024/03/20 07:02:09;;;;;;;19.35;10.98;;;13.70;99.90;;;13.97;91.16;101729.50;5074638;28;20040;-70
2024/03/20 07:04:36;;;;;;;22.73;11.48;;;13.80;99.90;;;14.30;90.54;101779.94;5075043;28;20036;-70
2024/03/20 07:07:04;;;;;;;22.73;12.23;;;13.80;99.90;;;14.37;90.42;101784.31;5074677;28;20047;-70
2024/03/20 07:09:31;;;;;;;16.85;11.20;;;13.90;99.90;;;14.42;90.70;101795.81;5058202;28;20575;-70
2024/03/20 07:11:59;;;;;;;19.25;11.30;;;13.90;99.90;;;14.61;90.62;101794.84;5075125;28;20549;-70
2024/03/20 07:14:29;;;;;;;20.00;11.82;;;14.10;99.90;;;14.75;90.17;101795.63;5074452;28;20048;-70
2024/03/20 07:16:57;;;;;;;21.48;12.55;;;14.30;99.90;;;14.71;89.10;101771.72;5074411;28;20051;-70
2024/03/20 07:19:23;;;;;;;21.48;12.35;;;14.40;99.90;;;14.95;88.75;101799.03;5057819;28;20063;-70
2024/03/20 07:21:51;;;;;;;17.73;12.13;;;14.50;99.90;;;15.08;88.39;101806.03;5057900;28;20053;-70
2024/03/20 07:24:17;;;;;;;17.33;11.13;;;14.60;99.90;;;14.59;88.70;101698.13;5074341;28;20047;-70
2024/03/20 07:26:45;;;;;;;22.48;12.75;;;14.70;99.90;;;15.31;88.18;101798.72;5074300;28;20412;-70
2024/03/20 07:29:11;;;;;;;26.60;13.85;;;14.80;99.90;;;15.25;86.98;101788.13;5074391;28;20040;-70
2024/03/20 07:31:41;;;;;;;25.83;13.20;;;14.90;99.90;;;15.29;86.44;101791.66;5074198;28;20059;-70
2024/03/20 07:34:08;;;;;;;25.42;13.57;;;14.90;99.90;;;15.39;85.95;101796.00;5057710;28;20160;-70
2024/03/20 07:36:35;;;;;;;24.50;14.48;;;15.00;99.90;;;15.51;85.56;101801.25;5074181;28;20047;-70
2024/03/20 07:39:04;;;;;;;27.55;14.65;;;15.10;99.90;;;15.56;84.71;101803.88;5074155;28;20040;-70
2024/03/20 07:41:31;;;;;;;27.57;14.10;;;15.10;99.90;;;15.63;84.66;101797.56;5074034;28;20040;-70
2024/03/20 07:43:59;;;;;;;22.45;14.68;;;15.20;99.90;;;15.62;84.65;101793.16;5074436;28;20055;-70
2024/03/20 07:46:25;;;;;;;22.52;13.75;;;15.30;99.90;;;15.75;85.02;101809.03;5074240;28;20036;-70
2024/03/20 07:48:54;;;;;;;23.40;14.23;;;15.30;99.90;;;15.93;85.40;101805.28;5074161;28;20039;-71
2024/03/20 07:51:20;;;;;;;28.10;15.45;;;15.50;99.90;;;15.96;84.92;101805.22;5073915;28;20070;-70
2024/03/20 07:53:48;;;;;;;23.40;14.35;;;15.50;99.90;;;15.87;84.69;101813.34;5070235;28;20532;-69
2024/03/20 07:56:15;;;;;;;31.92;16.10;;;15.50;99.90;;;15.97;84.31;101817.66;5070302;28;20048;-70
2024/03/20 07:58:42;;;;;;;26.77;15.68;;;15.50;99.90;;;16.26;83.66;101813.75;5070793;28;20041;-69
2024/03/20 08:01:11;;;;;;;27.30;16.33;;;15.80;99.90;;;16.35;82.35;101810.09;5070272;28;20032;-70
2024/03/20 08:03:41;;;;;;;29.80;17.23;;;16.00;99.90;;;16.66;81.60;101821.28;5070191;28;20489;-69
2024/03/20 08:06:11;;;;;;;26.08;15.90;;;16.20;99.90;;;16.78;80.32;101821.09;5070400;28;20037;-69
2024/03/20 08:08:38;;;;;;;24.70;15.00;;;16.40;99.90;;;16.93;79.11;101815.53;5053742;28;20545;-69
2024/03/20 08:11:05;;;;;;;27.88;16.30;;;16.60;99.90;;;16.95;78.45;101824.41;5070598;28;20036;-70
2024/03/20 08:13:32;;;;;;;28.75;15.77;;;16.60;99.90;;;16.87;78.08;101827.19;5069933;28;20044;-70
2024/03/20 08:15:59;;;;;;;27.02;15.65;;;16.50;99.90;;;16.88;78.32;101822.69;5069941;28;20067;-69
2024/03/20 08:18:30;;;;;;;25.40;14.75;;;16.50;99.90;;;16.94;78.84;101826.19;5070362;28;20051;-69
2024/03/20 08:20:57;;;;;;;22.85;15.20;;;16.60;99.90;;;16.99;78.25;101818.97;5070208;28;20036;-70
2024/03/20 08:23:25;;;;;;;24.60;15.88;;;16.60;99.90;;;16.87;78.42;101823.63;5069747;28;20037;-69
2024/03/20 08:25:55;;;;;;;27.92;16.42;;;16.50;99.90;;;16.86;78.55;101822.72;5069757;28;20516;-69
2024/03/20 08:28:21;;;;;;;25.77;16.25;;;16.50;99.90;;;16.85;78.95;101828.09;5070028;28;20037;-68
2024/03/20 08:30:50;;;;;;;27.60;15.98;;;16.40;99.90;;;16.97;78.97;101828.81;5070313;28;20086;-67
2024/03/20 08:33:17;;;;;;;26.52;15.52;;;16.50;99.90;;;16.98;77.69;101824.34;5070002;28;20059;-68
2024/03/20 08:35:44;;;;;;;28.35;15.35;;;16.50;99.90;;;17.02;77.93;101832.28;5069741;28;20055;-68
2024/03/20 08:38:10;;;;;;;27.02;15.50;;;16.60;99.90;;;17.06;77.58;101826.00;5053126;28;20401;-68
2024/03/20 08:40:39;;;;;;;22.67;15.68;;;16.60;99.90;;;16.88;77.52;101812.91;5069657;28;20138;-69
2024/03/20 08:43:06;;;;;;;27.10;15.07;;;16.50;99.90;;;16.99;77.84;101815.44;5053137;28;20048;-72
2024/03/20 08:45:37;;;;;;;23.98;15.95;;;16.60;99.90;;;17.01;77.16;101827.84;5069483;28;20452;-69
2024/03/20 08:48:07;;;;;;;29.67;15.57;;;16.50;99.90;;;17.11;77.27;101823.25;5069583;28;20060;-69
2024/03/20 08:50:43;;;;;;;24.15;14.63;;;16.70;99.90;;;17.04;77.41;101830.50;5069804;28;20037;-69
2024/03/20 08:53:14;;;;;;;33.10;16.17;;;16.70;99.90;;;17.20;77.63;101844.50;5052983;28;20492;-69
2024/03/20 08:55:48;;;;;;;28.10;15.40;;;16.70;99.90;;;17.41;77.58;101845.94;5069605;28;20067;-69
2024/03/20 08:58:16;;;;;;;24.75;15.77;;;17.00;99.90;;;17.43;77.20;101833.41;5069430;28;20139;-70
2024/03/20 09:00:45;;;;;;;28.88;13.27;;;17.00;99.90;;;17.71;76.19;101837.41;5068871;28;20059;-64
2024/03/20 09:03:12;;;;;;;24.27;13.40;;;17.30;99.90;;;18.00;74.30;101835.94;5069640;28;20041;-68
2024/03/20 09:05:41;;;;;;;21.10;11.80;;;17.60;99.90;;;18.18;72.59;101841.84;5069530;28;20047;-69
2024/03/20 09:08:08;;;;;;;19.48;12.63;;;17.80;99.90;;;18.48;72.07;101835.91;5069509;28;20043;-68
2024/03/20 09:10:36;;;;;;;22.08;12.73;;;18.10;99.90;;;18.64;70.40;101846.25;5069296;28;20036;-72
2024/03/20 09:13:04;;;;;;;21.33;13.45;;;18.30;99.90;;;18.77;69.68;101846.88;5069238;28;20051;-71
2024/03/20 09:15:31;;;;;;;22.85;13.20;;;18.40;99.90;;;18.89;68.87;101850.13;5069195;28;20086;-72
2024/03/20 09:17:58;;;;;;;21.95;14.40;;;18.50;99.90;;;19.04;68.99;101839.97;5069254;28;20049;-68
2024/03/20 09:20:26;;;;;;;20.95;14.07;;;18.70;99.90;;;19.21;68.78;101840.47;5069555;28;20044;-69
2024/03/20 09:22:55;;;;;;;24.25;13.40;;;18.80;99.90;;;19.36;68.34;101842.78;5069184;28;20051;-69
2024/03/20 09:25:22;;;;;;;24.60;14.40;;;19.00;99.90;;;19.51;68.45;101837.91;5069408;28;20066;-70
2024/03/20 09:27:50;;;;;;;27.25;14.80;;;19.20;99.90;;;19.64;67.56;101841.19;5069031;28;20085;-69
2024/03/20 09:30:20;;;;;;;24.13;14.68;;;19.30;99.90;;;19.76;66.90;101846.25;5069696;28;20040;-69
2024/03/20 09:32:46;;;;;;;21.45;13.70;;;19.40;99.90;;;19.80;66.68;101846.09;5069085;28;20044;-72
2024/03/20 09:35:15;;;;;;;28.38;15.52;;;19.50;99.90;;;19.85;65.75;101845.09;5069290;28;20079;-70
2024/03/20 09:37:41;;;;;;;24.73;15.15;;;19.50;99.90;;;19.83;65.81;101838.88;5052655;28;20439;-70
2024/03/20 09:40:10;;;;;;;20.23;14.13;;;19.50;99.90;;;19.67;65.96;101841.97;5068995;28;20037;-66
2024/03/20 09:42:37;;;;;;;27.67;16.65;;;19.40;99.90;;;19.43;66.48;101813.09;5069422;28;20678;-69
2024/03/20 09:45:08;;;;;;;33.85;18.95;;;19.20;99.90;;;19.61;65.64;101830.50;5069332;28;20048;-72
2024/03/20 09:47:38;;;;;;;34.00;20.17;;;19.30;99.90;;;19.61;64.88;101834.06;5068991;28;20039;-72
2024/03/20 09:50:12;;;;;;;31.67;18.73;;;19.30;99.90;;;19.60;64.59;101828.75;5069091;28;20459;-72
2024/03/20 09:52:39;;;;;;;38.20;19.83;;;19.20;99.90;;;19.61;64.65;101820.66;5070440;28;20039;-73
2024/03/20 09:55:08;;;;;;;32.72;19.50;;;19.30;99.90;;;19.75;64.69;101825.66;5072489;28;20036;-69
2024/03/20 09:57:38;;;;;;;35.60;18.90;;;19.40;99.90;;;19.78;64.42;101830.97;5055657;28;20496;-74
2024/03/20 10:00:10;;;;;;;29.10;18.45;;;19.40;99.90;;;19.87;64.71;101835.19;5072275;28;20044;-71
2024/03/20 10:02:38;;;;;;;28.13;18.65;;;19.50;99.90;;;19.94;64.74;101826.91;5072213;28;20036;-79
2024/03/20 10:05:07;;;;;;;36.80;20.45;;;19.50;99.90;;;20.07;64.57;101830.16;5072229;28;20040;-69